sensor_id;sensor_type;location;lat;lon;timestamp;temperature;humidity
7014;DHT22;3547;50.774;12.918;2023-04-25T00:00:34;6.40;24.70
7014;DHT22;3547;50.774;12.918;2023-04-25T00:03:01;6.30;24.30
7014;DHT22;3547;50.774;12.918;2023-04-25T00:05:27;6.30;24.80
7014;DHT22;3547;50.774;12.918;2023-04-25T00:07:53;6.30;23.90
7014;DHT22;3547;50.774;12.918;2023-04-25T00:10:20;6.30;24.80
7014;DHT22;3547;50.774;12.918;2023-04-25T00:12:46;6.20;24.90
7014;DHT22;3547;50.774;12.918;2023-04-25T00:15:13;6.20;23.70
7014;DHT22;3547;50.774;12.918;2023-04-25T00:21:02;6.20;24.10
7014;DHT22;3547;50.774;12.918;2023-04-25T00:23:28;6.20;23.40
7014;DHT22;3547;50.774;12.918;2023-04-25T00:25:54;6.10;22.90
7014;DHT22;3547;50.774;12.918;2023-04-25T00:28:20;6.10;23.60
7014;DHT22;3547;50.774;12.918;2023-04-25T00:30:47;6.00;23.10
7014;DHT22;3547;50.774;12.918;2023-04-25T00:33:13;6.00;23.00
7014;DHT22;3547;50.774;12.918;2023-04-25T00:35:39;6.00;23.60
7014;DHT22;3547;50.774;12.918;2023-04-25T00:38:05;6.00;23.60
7014;DHT22;3547;50.774;12.918;2023-04-25T00:40:31;6.00;23.40
7014;DHT22;3547;50.774;12.918;2023-04-25T00:42:58;6.00;23.30
7014;DHT22;3547;50.774;12.918;2023-04-25T00:45:28;5.90;25.50
7014;DHT22;3547;50.774;12.918;2023-04-25T00:47:58;5.90;24.80
7014;DHT22;3547;50.774;12.918;2023-04-25T00:50:24;5.90;25.00
7014;DHT22;3547;50.774;12.918;2023-04-25T00:52:51;5.90;24.40
7014;DHT22;3547;50.774;12.918;2023-04-25T00:55:17;5.90;25.60
7014;DHT22;3547;50.774;12.918;2023-04-25T00:57:44;5.90;25.80
7014;DHT22;3547;50.774;12.918;2023-04-25T01:00:10;5.80;26.20
7014;DHT22;3547;50.774;12.918;2023-04-25T01:02:38;5.80;26.00
7014;DHT22;3547;50.774;12.918;2023-04-25T01:05:04;5.80;25.40
7014;DHT22;3547;50.774;12.918;2023-04-25T01:07:31;5.80;25.10
7014;DHT22;3547;50.774;12.918;2023-04-25T01:09:57;5.80;24.50
7014;DHT22;3547;50.774;12.918;2023-04-25T01:12:24;5.80;25.40
7014;DHT22;3547;50.774;12.918;2023-04-25T01:14:50;5.80;26.30
7014;DHT22;3547;50.774;12.918;2023-04-25T01:17:17;5.80;25.60
7014;DHT22;3547;50.774;12.918;2023-04-25T01:19:44;5.80;26.50
7014;DHT22;3547;50.774;12.918;2023-04-25T01:22:12;5.80;27.50
7014;DHT22;3547;50.774;12.918;2023-04-25T01:24:38;5.80;27.20
7014;DHT22;3547;50.774;12.918;2023-04-25T01:27:04;5.90;28.60
7014;DHT22;3547;50.774;12.918;2023-04-25T01:29:32;5.90;28.60
7014;DHT22;3547;50.774;12.918;2023-04-25T01:31:59;6.00;31.90
7014;DHT22;3547;50.774;12.918;2023-04-25T01:34:25;6.00;34.50
7014;DHT22;3547;50.774;12.918;2023-04-25T01:36:53;6.00;32.20
7014;DHT22;3547;50.774;12.918;2023-04-25T01:39:20;6.00;33.80
7014;DHT22;3547;50.774;12.918;2023-04-25T01:41:47;6.10;32.00
7014;DHT22;3547;50.774;12.918;2023-04-25T01:44:14;6.10;31.00
7014;DHT22;3547;50.774;12.918;2023-04-25T01:46:41;6.20;31.70
7014;DHT22;3547;50.774;12.918;2023-04-25T01:49:07;6.20;33.20
7014;DHT22;3547;50.774;12.918;2023-04-25T01:51:33;6.30;33.20
7014;DHT22;3547;50.774;12.918;2023-04-25T01:54:00;6.30;32.30
7014;DHT22;3547;50.774;12.918;2023-04-25T01:56:31;6.30;33.30
7014;DHT22;3547;50.774;12.918;2023-04-25T01:58:57;6.40;32.50
7014;DHT22;3547;50.774;12.918;2023-04-25T02:01:24;6.40;35.70
7014;DHT22;3547;50.774;12.918;2023-04-25T02:03:50;6.40;36.10
7014;DHT22;3547;50.774;12.918;2023-04-25T02:06:16;6.50;37.20
7014;DHT22;3547;50.774;12.918;2023-04-25T02:08:42;6.50;37.00
7014;DHT22;3547;50.774;12.918;2023-04-25T02:11:08;6.50;39.00
7014;DHT22;3547;50.774;12.918;2023-04-25T02:13:34;6.50;36.20
7014;DHT22;3547;50.774;12.918;2023-04-25T02:16:00;6.60;38.20
7014;DHT22;3547;50.774;12.918;2023-04-25T02:18:27;6.60;35.50
7014;DHT22;3547;50.774;12.918;2023-04-25T02:20:53;6.50;38.10
7014;DHT22;3547;50.774;12.918;2023-04-25T02:23:23;6.60;36.60
7014;DHT22;3547;50.774;12.918;2023-04-25T02:29:12;6.70;35.50
7014;DHT22;3547;50.774;12.918;2023-04-25T02:31:38;6.80;35.70
7014;DHT22;3547;50.774;12.918;2023-04-25T02:34:04;6.70;38.30
7014;DHT22;3547;50.774;12.918;2023-04-25T02:43:13;6.80;38.50
7014;DHT22;3547;50.774;12.918;2023-04-25T02:45:39;6.90;37.30
7014;DHT22;3547;50.774;12.918;2023-04-25T02:48:06;6.90;36.60
7014;DHT22;3547;50.774;12.918;2023-04-25T02:53:54;7.00;37.10
7014;DHT22;3547;50.774;12.918;2023-04-25T02:56:20;7.00;37.30
7014;DHT22;3547;50.774;12.918;2023-04-25T02:58:46;7.00;37.10
7014;DHT22;3547;50.774;12.918;2023-04-25T03:01:15;7.00;38.00
7014;DHT22;3547;50.774;12.918;2023-04-25T03:03:42;7.00;40.00
7014;DHT22;3547;50.774;12.918;2023-04-25T03:06:08;7.00;37.80
7014;DHT22;3547;50.774;12.918;2023-04-25T03:08:34;7.10;38.20
7014;DHT22;3547;50.774;12.918;2023-04-25T03:11:00;7.10;37.00
7014;DHT22;3547;50.774;12.918;2023-04-25T03:13:26;7.10;36.60
7014;DHT22;3547;50.774;12.918;2023-04-25T03:22:37;7.10;39.60
7014;DHT22;3547;50.774;12.918;2023-04-25T03:25:04;7.10;40.60
7014;DHT22;3547;50.774;12.918;2023-04-25T03:27:30;7.20;41.40
7014;DHT22;3547;50.774;12.918;2023-04-25T03:29:56;7.20;39.80
7014;DHT22;3547;50.774;12.918;2023-04-25T03:32:22;7.20;42.10
7014;DHT22;3547;50.774;12.918;2023-04-25T03:34:52;7.20;40.90
7014;DHT22;3547;50.774;12.918;2023-04-25T03:37:21;7.30;43.70
7014;DHT22;3547;50.774;12.918;2023-04-25T03:43:10;7.30;41.70
7014;DHT22;3547;50.774;12.918;2023-04-25T03:45:37;7.30;40.40
7014;DHT22;3547;50.774;12.918;2023-04-25T03:48:04;7.30;42.50
7014;DHT22;3547;50.774;12.918;2023-04-25T03:50:30;7.30;38.90
7014;DHT22;3547;50.774;12.918;2023-04-25T03:52:56;7.30;38.40
7014;DHT22;3547;50.774;12.918;2023-04-25T03:55:22;7.30;38.50
7014;DHT22;3547;50.774;12.918;2023-04-25T03:57:48;7.30;40.80
7014;DHT22;3547;50.774;12.918;2023-04-25T04:00:15;7.30;41.10
7014;DHT22;3547;50.774;12.918;2023-04-25T04:02:44;7.30;36.50
7014;DHT22;3547;50.774;12.918;2023-04-25T04:05:11;7.30;38.20
7014;DHT22;3547;50.774;12.918;2023-04-25T04:07:43;7.40;39.10
7014;DHT22;3547;50.774;12.918;2023-04-25T04:10:10;7.30;39.80
7014;DHT22;3547;50.774;12.918;2023-04-25T04:12:37;7.20;36.40
7014;DHT22;3547;50.774;12.918;2023-04-25T04:15:04;7.20;36.90
7014;DHT22;3547;50.774;12.918;2023-04-25T04:17:31;7.30;38.60
7014;DHT22;3547;50.774;12.918;2023-04-25T04:19:57;7.20;39.30
7014;DHT22;3547;50.774;12.918;2023-04-25T04:22:24;7.30;36.90
7014;DHT22;3547;50.774;12.918;2023-04-25T04:24:51;7.30;38.60
7014;DHT22;3547;50.774;12.918;2023-04-25T04:27:19;7.30;37.40
7014;DHT22;3547;50.774;12.918;2023-04-25T04:29:45;7.30;37.60
7014;DHT22;3547;50.774;12.918;2023-04-25T04:32:16;7.30;36.00
7014;DHT22;3547;50.774;12.918;2023-04-25T04:34:48;7.30;36.70
7014;DHT22;3547;50.774;12.918;2023-04-25T04:37:14;7.40;35.60
7014;DHT22;3547;50.774;12.918;2023-04-25T04:39:41;7.30;36.70
7014;DHT22;3547;50.774;12.918;2023-04-25T04:42:09;7.30;35.60
7014;DHT22;3547;50.774;12.918;2023-04-25T04:44:37;7.30;36.40
7014;DHT22;3547;50.774;12.918;2023-04-25T04:47:08;7.40;35.30
7014;DHT22;3547;50.774;12.918;2023-04-25T04:49:51;7.40;35.80
7014;DHT22;3547;50.774;12.918;2023-04-25T04:52:24;7.40;38.10
7014;DHT22;3547;50.774;12.918;2023-04-25T04:58:13;7.50;32.30
7014;DHT22;3547;50.774;12.918;2023-04-25T05:00:39;7.50;31.30
7014;DHT22;3547;50.774;12.918;2023-04-25T05:03:06;7.50;31.40
7014;DHT22;3547;50.774;12.918;2023-04-25T05:05:32;7.40;28.70
7014;DHT22;3547;50.774;12.918;2023-04-25T05:08:01;7.30;28.80
7014;DHT22;3547;50.774;12.918;2023-04-25T05:10:30;7.30;30.00
7014;DHT22;3547;50.774;12.918;2023-04-25T05:12:59;7.20;27.40
7014;DHT22;3547;50.774;12.918;2023-04-25T05:15:31;7.20;27.00
7014;DHT22;3547;50.774;12.918;2023-04-25T05:17:59;7.20;26.60
7014;DHT22;3547;50.774;12.918;2023-04-25T05:20:28;7.20;28.10
7014;DHT22;3547;50.774;12.918;2023-04-25T05:22:55;7.30;28.40
7014;DHT22;3547;50.774;12.918;2023-04-25T05:25:31;7.40;30.20
7014;DHT22;3547;50.774;12.918;2023-04-25T05:28:02;7.40;26.00
7014;DHT22;3547;50.774;12.918;2023-04-25T05:30:31;7.60;29.90
7014;DHT22;3547;50.774;12.918;2023-04-25T05:32:57;7.60;26.20
7014;DHT22;3547;50.774;12.918;2023-04-25T05:35:23;7.60;25.00
7014;DHT22;3547;50.774;12.918;2023-04-25T05:37:49;7.70;26.50
7014;DHT22;3547;50.774;12.918;2023-04-25T05:40:15;7.60;24.10
7014;DHT22;3547;50.774;12.918;2023-04-25T05:42:42;7.60;24.80
7014;DHT22;3547;50.774;12.918;2023-04-25T05:45:08;7.60;23.90
7014;DHT22;3547;50.774;12.918;2023-04-25T05:47:34;7.60;23.30
7014;DHT22;3547;50.774;12.918;2023-04-25T05:50:00;7.60;24.50
7014;DHT22;3547;50.774;12.918;2023-04-25T05:52:27;7.70;22.90
7014;DHT22;3547;50.774;12.918;2023-04-25T05:54:53;7.70;22.80
7014;DHT22;3547;50.774;12.918;2023-04-25T05:57:24;7.80;24.10
7014;DHT22;3547;50.774;12.918;2023-04-25T05:59:51;7.90;21.20
7014;DHT22;3547;50.774;12.918;2023-04-25T06:02:18;7.90;24.40
7014;DHT22;3547;50.774;12.918;2023-04-25T06:04:44;7.90;22.30
7014;DHT22;3547;50.774;12.918;2023-04-25T06:07:10;7.80;23.50
7014;DHT22;3547;50.774;12.918;2023-04-25T06:09:39;7.80;23.20
7014;DHT22;3547;50.774;12.918;2023-04-25T06:12:06;7.80;20.30
7014;DHT22;3547;50.774;12.918;2023-04-25T06:17:09;7.70;19.00
7014;DHT22;3547;50.774;12.918;2023-04-25T06:19:38;7.70;17.80
7014;DHT22;3547;50.774;12.918;2023-04-25T06:22:11;7.60;19.90
7014;DHT22;3547;50.774;12.918;2023-04-25T06:24:37;7.60;17.40
7014;DHT22;3547;50.774;12.918;2023-04-25T06:29:47;7.60;17.70
7014;DHT22;3547;50.774;12.918;2023-04-25T06:32:13;7.40;17.30
7014;DHT22;3547;50.774;12.918;2023-04-25T06:34:43;7.40;18.60
7014;DHT22;3547;50.774;12.918;2023-04-25T06:37:11;7.40;16.60
7014;DHT22;3547;50.774;12.918;2023-04-25T06:53:04;7.40;17.40
7014;DHT22;3547;50.774;12.918;2023-04-25T06:55:38;7.50;17.90
7014;DHT22;3547;50.774;12.918;2023-04-25T06:58:04;7.50;19.80
7014;DHT22;3547;50.774;12.918;2023-04-25T07:00:30;7.50;19.30
7014;DHT22;3547;50.774;12.918;2023-04-25T07:02:56;7.50;16.70
7014;DHT22;3547;50.774;12.918;2023-04-25T07:07:58;7.50;21.70
7014;DHT22;3547;50.774;12.918;2023-04-25T07:13:48;7.60;18.30
7014;DHT22;3547;50.774;12.918;2023-04-25T07:16:14;7.50;15.60
7014;DHT22;3547;50.774;12.918;2023-04-25T07:18:45;7.60;17.30
7014;DHT22;3547;50.774;12.918;2023-04-25T07:37:10;8.30;19.80
7014;DHT22;3547;50.774;12.918;2023-04-25T07:39:37;8.30;19.20
7014;DHT22;3547;50.774;12.918;2023-04-25T07:42:03;8.60;22.60
7014;DHT22;3547;50.774;12.918;2023-04-25T07:44:41;8.60;21.60
7014;DHT22;3547;50.774;12.918;2023-04-25T07:47:10;8.50;16.90
7014;DHT22;3547;50.774;12.918;2023-04-25T07:49:37;8.10;10.90
7014;DHT22;3547;50.774;12.918;2023-04-25T07:52:05;8.00;9.60
7014;DHT22;3547;50.774;12.918;2023-04-25T07:54:34;7.90;9.50
7014;DHT22;3547;50.774;12.918;2023-04-25T07:57:00;7.90;11.30
7014;DHT22;3547;50.774;12.918;2023-04-25T07:59:28;7.80;11.00
7014;DHT22;3547;50.774;12.918;2023-04-25T08:01:54;7.90;14.70
7014;DHT22;3547;50.774;12.918;2023-04-25T08:04:20;7.90;15.30
7014;DHT22;3547;50.774;12.918;2023-04-25T08:14:34;8.40;20.40
7014;DHT22;3547;50.774;12.918;2023-04-25T08:17:05;8.50;22.70
7014;DHT22;3547;50.774;12.918;2023-04-25T08:27:19;8.30;17.90
7014;DHT22;3547;50.774;12.918;2023-04-25T08:29:47;8.50;22.40
7014;DHT22;3547;50.774;12.918;2023-04-25T08:32:21;8.70;22.00
7014;DHT22;3547;50.774;12.918;2023-04-25T08:34:50;8.70;20.60
7014;DHT22;3547;50.774;12.918;2023-04-25T08:37:19;8.70;19.50
7014;DHT22;3547;50.774;12.918;2023-04-25T08:39:46;8.60;20.00
7014;DHT22;3547;50.774;12.918;2023-04-25T08:42:15;8.50;17.80
7014;DHT22;3547;50.774;12.918;2023-04-25T08:44:41;8.20;14.70
7014;DHT22;3547;50.774;12.918;2023-04-25T08:47:07;7.90;13.70
7014;DHT22;3547;50.774;12.918;2023-04-25T08:49:34;8.30;15.20
7014;DHT22;3547;50.774;12.918;2023-04-25T08:52:03;8.30;15.00
7014;DHT22;3547;50.774;12.918;2023-04-25T08:54:32;8.20;15.60
7014;DHT22;3547;50.774;12.918;2023-04-25T08:57:01;8.20;13.50
7014;DHT22;3547;50.774;12.918;2023-04-25T08:59:28;8.10;16.70
7014;DHT22;3547;50.774;12.918;2023-04-25T09:01:58;8.00;15.80
7014;DHT22;3547;50.774;12.918;2023-04-25T09:04:26;8.00;14.50
7014;DHT22;3547;50.774;12.918;2023-04-25T09:06:53;7.80;13.80
7014;DHT22;3547;50.774;12.918;2023-04-25T09:09:19;7.70;13.60
7014;DHT22;3547;50.774;12.918;2023-04-25T09:11:45;7.90;13.90
7014;DHT22;3547;50.774;12.918;2023-04-25T09:14:20;8.00;13.70
7014;DHT22;3547;50.774;12.918;2023-04-25T09:17:07;8.40;15.90
7014;DHT22;3547;50.774;12.918;2023-04-25T09:19:35;8.60;15.20
7014;DHT22;3547;50.774;12.918;2023-04-25T09:22:04;9.00;18.80
7014;DHT22;3547;50.774;12.918;2023-04-25T09:24:42;9.40;18.00
7014;DHT22;3547;50.774;12.918;2023-04-25T09:27:13;9.20;17.30
7014;DHT22;3547;50.774;12.918;2023-04-25T09:29:43;8.90;14.80
7014;DHT22;3547;50.774;12.918;2023-04-25T09:32:21;8.80;16.60
7014;DHT22;3547;50.774;12.918;2023-04-25T09:34:53;8.80;15.70
7014;DHT22;3547;50.774;12.918;2023-04-25T09:37:24;8.40;11.80
7014;DHT22;3547;50.774;12.918;2023-04-25T09:39:59;8.50;14.20
7014;DHT22;3547;50.774;12.918;2023-04-25T09:45:12;8.50;14.50
7014;DHT22;3547;50.774;12.918;2023-04-25T09:47:48;8.40;16.10
7014;DHT22;3547;50.774;12.918;2023-04-25T09:50:16;8.10;15.40
7014;DHT22;3547;50.774;12.918;2023-04-25T09:52:45;7.80;12.70
7014;DHT22;3547;50.774;12.918;2023-04-25T09:55:12;7.90;14.20
7014;DHT22;3547;50.774;12.918;2023-04-25T09:57:46;7.70;13.90
7014;DHT22;3547;50.774;12.918;2023-04-25T10:00:15;7.80;14.70
7014;DHT22;3547;50.774;12.918;2023-04-25T10:02:47;7.70;14.90
7014;DHT22;3547;50.774;12.918;2023-04-25T10:05:17;7.60;14.20
7014;DHT22;3547;50.774;12.918;2023-04-25T10:07:44;7.60;15.40
7014;DHT22;3547;50.774;12.918;2023-04-25T10:10:12;7.70;15.90
7014;DHT22;3547;50.774;12.918;2023-04-25T10:12:39;8.00;16.30
7014;DHT22;3547;50.774;12.918;2023-04-25T10:15:06;8.30;17.50
7014;DHT22;3547;50.774;12.918;2023-04-25T10:17:35;8.60;16.10
7014;DHT22;3547;50.774;12.918;2023-04-25T10:20:02;8.60;17.10
7014;DHT22;3547;50.774;12.918;2023-04-25T10:22:42;8.60;18.50
7014;DHT22;3547;50.774;12.918;2023-04-25T10:25:10;8.50;16.40
7014;DHT22;3547;50.774;12.918;2023-04-25T10:27:37;8.70;19.50
7014;DHT22;3547;50.774;12.918;2023-04-25T10:32:37;8.80;18.20
7014;DHT22;3547;50.774;12.918;2023-04-25T10:35:24;8.80;17.00
7014;DHT22;3547;50.774;12.918;2023-04-25T10:41:04;8.50;15.70
7014;DHT22;3547;50.774;12.918;2023-04-25T10:45:59;8.30;14.90
7014;DHT22;3547;50.774;12.918;2023-04-25T10:48:26;8.10;14.30
7014;DHT22;3547;50.774;12.918;2023-04-25T10:51:09;8.10;16.50
7014;DHT22;3547;50.774;12.918;2023-04-25T10:53:36;8.00;16.60
7014;DHT22;3547;50.774;12.918;2023-04-25T10:58:43;7.40;19.70
7014;DHT22;3547;50.774;12.918;2023-04-25T11:01:09;7.40;19.70
7014;DHT22;3547;50.774;12.918;2023-04-25T11:03:45;7.30;18.30
7014;DHT22;3547;50.774;12.918;2023-04-25T11:06:45;7.60;20.50
7014;DHT22;3547;50.774;12.918;2023-04-25T11:09:13;7.60;17.90
7014;DHT22;3547;50.774;12.918;2023-04-25T11:11:39;7.30;17.00
7014;DHT22;3547;50.774;12.918;2023-04-25T11:14:05;7.20;18.40
7014;DHT22;3547;50.774;12.918;2023-04-25T11:20:01;7.20;18.60
7014;DHT22;3547;50.774;12.918;2023-04-25T11:25:54;7.70;19.20
7014;DHT22;3547;50.774;12.918;2023-04-25T11:28:21;7.70;19.40
7014;DHT22;3547;50.774;12.918;2023-04-25T11:30:51;7.90;20.60
7014;DHT22;3547;50.774;12.918;2023-04-25T11:33:17;7.90;19.10
7014;DHT22;3547;50.774;12.918;2023-04-25T11:35:44;7.70;17.60
7014;DHT22;3547;50.774;12.918;2023-04-25T11:38:10;7.60;19.20
7014;DHT22;3547;50.774;12.918;2023-04-25T11:40:36;7.40;17.80
7014;DHT22;3547;50.774;12.918;2023-04-25T11:43:02;7.50;18.20
7014;DHT22;3547;50.774;12.918;2023-04-25T11:45:29;7.60;18.50
7014;DHT22;3547;50.774;12.918;2023-04-25T11:47:57;7.70;18.20
7014;DHT22;3547;50.774;12.918;2023-04-25T11:50:23;7.70;18.80
7014;DHT22;3547;50.774;12.918;2023-04-25T11:52:49;7.30;18.70
7014;DHT22;3547;50.774;12.918;2023-04-25T11:55:18;7.30;20.90
7014;DHT22;3547;50.774;12.918;2023-04-25T11:57:46;7.30;19.10
7014;DHT22;3547;50.774;12.918;2023-04-25T12:02:51;7.60;21.20
7014;DHT22;3547;50.774;12.918;2023-04-25T12:05:17;7.40;19.40
7014;DHT22;3547;50.774;12.918;2023-04-25T12:07:43;7.30;18.60
7014;DHT22;3547;50.774;12.918;2023-04-25T12:10:13;7.10;17.60
7014;DHT22;3547;50.774;12.918;2023-04-25T12:12:44;7.30;18.00
7014;DHT22;3547;50.774;12.918;2023-04-25T12:15:15;7.30;17.00
7014;DHT22;3547;50.774;12.918;2023-04-25T12:17:47;7.30;15.30
7014;DHT22;3547;50.774;12.918;2023-04-25T12:20:15;7.30;15.80
7014;DHT22;3547;50.774;12.918;2023-04-25T12:22:47;7.20;15.80
7014;DHT22;3547;50.774;12.918;2023-04-25T12:25:35;7.10;15.60
7014;DHT22;3547;50.774;12.918;2023-04-25T12:28:22;6.80;13.40
7014;DHT22;3547;50.774;12.918;2023-04-25T12:31:03;6.80;12.60
7014;DHT22;3547;50.774;12.918;2023-04-25T12:33:34;6.90;14.40
7014;DHT22;3547;50.774;12.918;2023-04-25T12:36:02;6.90;14.70
7014;DHT22;3547;50.774;12.918;2023-04-25T12:38:31;7.00;15.90
7014;DHT22;3547;50.774;12.918;2023-04-25T12:40:58;7.00;16.20
7014;DHT22;3547;50.774;12.918;2023-04-25T12:46:43;7.00;19.70
7014;DHT22;3547;50.774;12.918;2023-04-25T12:49:09;7.00;19.90
7014;DHT22;3547;50.774;12.918;2023-04-25T12:51:36;7.00;22.00
7014;DHT22;3547;50.774;12.918;2023-04-25T12:54:03;7.10;21.70
7014;DHT22;3547;50.774;12.918;2023-04-25T12:56:30;7.10;24.70
7014;DHT22;3547;50.774;12.918;2023-04-25T12:58:57;6.70;24.70
7014;DHT22;3547;50.774;12.918;2023-04-25T13:01:24;6.80;27.20
7014;DHT22;3547;50.774;12.918;2023-04-25T13:03:53;6.90;31.30
7014;DHT22;3547;50.774;12.918;2023-04-25T13:06:22;7.00;35.70
7014;DHT22;3547;50.774;12.918;2023-04-25T13:08:48;7.20;42.00
7014;DHT22;3547;50.774;12.918;2023-04-25T13:11:14;7.20;30.10
7014;DHT22;3547;50.774;12.918;2023-04-25T13:13:41;7.20;30.70
7014;DHT22;3547;50.774;12.918;2023-04-25T13:16:07;7.40;33.10
7014;DHT22;3547;50.774;12.918;2023-04-25T13:18:34;7.40;30.50
7014;DHT22;3547;50.774;12.918;2023-04-25T13:21:00;7.40;28.00
7014;DHT22;3547;50.774;12.918;2023-04-25T13:23:28;7.30;27.90
7014;DHT22;3547;50.774;12.918;2023-04-25T13:32:39;7.50;32.90
7014;DHT22;3547;50.774;12.918;2023-04-25T13:35:12;7.40;27.90
7014;DHT22;3547;50.774;12.918;2023-04-25T13:48:47;7.70;28.10
7014;DHT22;3547;50.774;12.918;2023-04-25T13:51:15;7.90;28.50
7014;DHT22;3547;50.774;12.918;2023-04-25T13:53:43;8.30;33.50
7014;DHT22;3547;50.774;12.918;2023-04-25T13:56:10;8.40;32.30
7014;DHT22;3547;50.774;12.918;2023-04-25T13:58:37;8.60;31.70
7014;DHT22;3547;50.774;12.918;2023-04-25T14:01:03;8.90;30.20
7014;DHT22;3547;50.774;12.918;2023-04-25T14:03:30;8.90;26.40
7014;DHT22;3547;50.774;12.918;2023-04-25T14:05:57;9.20;25.30
7014;DHT22;3547;50.774;12.918;2023-04-25T14:08:23;8.90;23.60
7014;DHT22;3547;50.774;12.918;2023-04-25T14:10:49;9.10;24.70
7014;DHT22;3547;50.774;12.918;2023-04-25T14:13:15;8.80;25.40
7014;DHT22;3547;50.774;12.918;2023-04-25T14:15:41;8.80;23.80
7014;DHT22;3547;50.774;12.918;2023-04-25T14:18:07;8.60;21.00
7014;DHT22;3547;50.774;12.918;2023-04-25T14:20:34;8.70;21.50
7014;DHT22;3547;50.774;12.918;2023-04-25T14:23:00;9.00;26.30
7014;DHT22;3547;50.774;12.918;2023-04-25T14:25:27;9.10;21.80
7014;DHT22;3547;50.774;12.918;2023-04-25T14:27:53;8.80;17.60
7014;DHT22;3547;50.774;12.918;2023-04-25T14:30:20;8.90;26.00
7014;DHT22;3547;50.774;12.918;2023-04-25T14:32:48;9.30;28.90
7014;DHT22;3547;50.774;12.918;2023-04-25T14:35:14;9.40;25.50
7014;DHT22;3547;50.774;12.918;2023-04-25T14:37:40;9.30;23.40
7014;DHT22;3547;50.774;12.918;2023-04-25T14:40:07;9.10;24.20
7014;DHT22;3547;50.774;12.918;2023-04-25T14:42:39;8.50;21.50
7014;DHT22;3547;50.774;12.918;2023-04-25T14:45:07;8.60;20.20
7014;DHT22;3547;50.774;12.918;2023-04-25T14:47:37;8.50;21.00
7014;DHT22;3547;50.774;12.918;2023-04-25T14:50:04;8.60;24.50
7014;DHT22;3547;50.774;12.918;2023-04-25T14:52:30;8.20;23.70
7014;DHT22;3547;50.774;12.918;2023-04-25T14:55:00;6.90;19.60
7014;DHT22;3547;50.774;12.918;2023-04-25T14:57:32;6.00;21.20
7014;DHT22;3547;50.774;12.918;2023-04-25T14:59:58;6.20;25.60
7014;DHT22;3547;50.774;12.918;2023-04-25T15:02:33;6.20;22.90
7014;DHT22;3547;50.774;12.918;2023-04-25T15:05:13;6.30;27.30
7014;DHT22;3547;50.774;12.918;2023-04-25T15:07:40;6.30;27.10
7014;DHT22;3547;50.774;12.918;2023-04-25T15:10:07;6.30;27.60
7014;DHT22;3547;50.774;12.918;2023-04-25T15:12:39;6.20;28.40
7014;DHT22;3547;50.774;12.918;2023-04-25T15:15:26;6.10;29.20
7014;DHT22;3547;50.774;12.918;2023-04-25T15:17:52;6.10;29.60
7014;DHT22;3547;50.774;12.918;2023-04-25T15:20:21;6.40;40.80
7014;DHT22;3547;50.774;12.918;2023-04-25T15:22:47;6.60;62.20
7014;DHT22;3547;50.774;12.918;2023-04-25T15:25:15;6.90;49.00
7014;DHT22;3547;50.774;12.918;2023-04-25T15:27:43;7.10;43.70
7014;DHT22;3547;50.774;12.918;2023-04-25T15:30:12;7.30;54.50
7014;DHT22;3547;50.774;12.918;2023-04-25T15:32:43;7.50;52.40
7014;DHT22;3547;50.774;12.918;2023-04-25T15:35:10;7.40;28.90
7014;DHT22;3547;50.774;12.918;2023-04-25T15:37:37;7.70;39.80
7014;DHT22;3547;50.774;12.918;2023-04-25T15:40:09;8.00;47.20
7014;DHT22;3547;50.774;12.918;2023-04-25T15:42:40;8.00;28.30
7014;DHT22;3547;50.774;12.918;2023-04-25T15:45:09;8.50;40.00
7014;DHT22;3547;50.774;12.918;2023-04-25T15:47:37;8.80;40.20
7014;DHT22;3547;50.774;12.918;2023-04-25T15:50:05;10.00;36.60
7014;DHT22;3547;50.774;12.918;2023-04-25T15:52:36;11.30;25.90
7014;DHT22;3547;50.774;12.918;2023-04-25T15:55:04;12.60;29.10
7014;DHT22;3547;50.774;12.918;2023-04-25T16:02:44;15.00;28.40
7014;DHT22;3547;50.774;12.918;2023-04-25T16:05:11;14.40;20.20
7014;DHT22;3547;50.774;12.918;2023-04-25T16:44:01;8.90;1.00
7014;DHT22;3547;50.774;12.918;2023-04-25T16:46:28;8.80;1.00
7014;DHT22;3547;50.774;12.918;2023-04-25T16:48:54;8.50;1.00
7014;DHT22;3547;50.774;12.918;2023-04-25T16:54:09;8.30;1.00
7014;DHT22;3547;50.774;12.918;2023-04-25T16:56:35;8.20;3.80
7014;DHT22;3547;50.774;12.918;2023-04-25T16:59:03;8.30;1.00
7014;DHT22;3547;50.774;12.918;2023-04-25T17:01:29;8.20;2.90
7014;DHT22;3547;50.774;12.918;2023-04-25T17:14:19;7.60;1.00
7014;DHT22;3547;50.774;12.918;2023-04-25T17:19:43;7.70;1.00
7014;DHT22;3547;50.774;12.918;2023-04-25T17:22:09;7.50;1.00
7014;DHT22;3547;50.774;12.918;2023-04-25T17:24:37;7.60;1.00
7014;DHT22;3547;50.774;12.918;2023-04-25T17:27:05;7.60;1.00
7014;DHT22;3547;50.774;12.918;2023-04-25T17:29:31;7.50;1.00
7014;DHT22;3547;50.774;12.918;2023-04-25T17:32:00;7.50;1.00
7014;DHT22;3547;50.774;12.918;2023-04-25T17:34:29;7.50;1.00
7014;DHT22;3547;50.774;12.918;2023-04-25T17:36:56;7.50;1.00
7014;DHT22;3547;50.774;12.918;2023-04-25T17:39:22;7.40;1.00
7014;DHT22;3547;50.774;12.918;2023-04-25T17:41:49;7.40;1.00
7014;DHT22;3547;50.774;12.918;2023-04-25T17:44:16;7.40;1.00
7014;DHT22;3547;50.774;12.918;2023-04-25T17:46:42;7.40;1.00
7014;DHT22;3547;50.774;12.918;2023-04-25T17:49:08;7.40;1.00
7014;DHT22;3547;50.774;12.918;2023-04-25T17:51:34;7.30;1.00
7014;DHT22;3547;50.774;12.918;2023-04-25T17:54:02;7.20;1.00
7014;DHT22;3547;50.774;12.918;2023-04-25T17:59:52;7.00;1.00
7014;DHT22;3547;50.774;12.918;2023-04-25T18:02:18;6.80;1.00
7014;DHT22;3547;50.774;12.918;2023-04-25T18:20:48;6.60;1.00
7014;DHT22;3547;50.774;12.918;2023-04-25T18:23:14;6.60;1.00
7014;DHT22;3547;50.774;12.918;2023-04-25T18:25:41;6.50;1.00
7014;DHT22;3547;50.774;12.918;2023-04-25T18:30:43;6.50;1.00
7014;DHT22;3547;50.774;12.918;2023-04-25T18:36:26;6.40;1.00
7014;DHT22;3547;50.774;12.918;2023-04-25T18:38:56;6.30;1.00
7014;DHT22;3547;50.774;12.918;2023-04-25T18:44:03;6.20;1.00
7014;DHT22;3547;50.774;12.918;2023-04-25T18:46:35;6.20;1.00
7014;DHT22;3547;50.774;12.918;2023-04-25T18:49:02;6.10;1.00
7014;DHT22;3547;50.774;12.918;2023-04-25T18:51:30;6.00;1.00
7014;DHT22;3547;50.774;12.918;2023-04-25T18:53:57;6.00;1.00
7014;DHT22;3547;50.774;12.918;2023-04-25T18:56:24;5.90;1.00
7014;DHT22;3547;50.774;12.918;2023-04-25T18:58:51;5.90;1.00
7014;DHT22;3547;50.774;12.918;2023-04-25T19:01:22;5.80;1.00
7014;DHT22;3547;50.774;12.918;2023-04-25T19:03:50;5.70;1.00
7014;DHT22;3547;50.774;12.918;2023-04-25T19:06:26;5.70;1.00
7014;DHT22;3547;50.774;12.918;2023-04-25T19:08:55;5.70;1.00
7014;DHT22;3547;50.774;12.918;2023-04-25T19:11:23;5.50;1.00
7014;DHT22;3547;50.774;12.918;2023-04-25T19:13:49;5.50;1.00
7014;DHT22;3547;50.774;12.918;2023-04-25T19:16:16;5.40;1.00
7014;DHT22;3547;50.774;12.918;2023-04-25T19:18:43;5.30;1.00
7014;DHT22;3547;50.774;12.918;2023-04-25T19:21:09;5.30;1.00
7014;DHT22;3547;50.774;12.918;2023-04-25T19:23:36;5.20;1.00
7014;DHT22;3547;50.774;12.918;2023-04-25T19:26:02;5.10;1.00
7014;DHT22;3547;50.774;12.918;2023-04-25T19:28:30;5.00;1.00
7014;DHT22;3547;50.774;12.918;2023-04-25T19:30:57;4.90;1.00
7014;DHT22;3547;50.774;12.918;2023-04-25T19:33:24;4.80;1.00
7014;DHT22;3547;50.774;12.918;2023-04-25T19:35:50;4.70;1.00
7014;DHT22;3547;50.774;12.918;2023-04-25T19:38:17;4.60;1.00
7014;DHT22;3547;50.774;12.918;2023-04-25T19:40:43;4.50;1.00
7014;DHT22;3547;50.774;12.918;2023-04-25T19:43:09;4.50;1.00
7014;DHT22;3547;50.774;12.918;2023-04-25T19:45:36;4.50;1.00